Time;durP1;ratioP1;P1;durP2;ratioP2;P2;SDS_P1;SDS_P2;PMS_P1;PMS_P2;Temp;Humidity;BMP_temperature;BMP_pressure;BME280_temperature;BME280_humidity;BME280_pressure;Samples;Min_cycle;Max_cycle;Signal;HPM_P1;HPM_P2
2022/12/06 00:01:58;;;;;;;;;;;4.70;99.90;;;;;;4976640;28;19925;-88
2022/12/06 00:04:24;;;;;;;;;;;4.70;99.90;;;;;;4979531;28;20025;-88
2022/12/06 00:06:56;;;;;;;;;;;4.70;99.90;;;;;;4975164;28;19926;-88
2022/12/06 00:09:26;;;;;;;;;;;3.70;99.90;;;;;;4979527;28;19933;-89
2022/12/06 00:11:52;;;;;;;;;;;4.70;99.90;;;;;;4963753;28;19926;-88
2022/12/06 00:14:18;;;;;;;;;;;4.60;99.90;;;;;;4977256;28;20008;-88
2022/12/06 00:16:47;;;;;;;;;;;4.60;99.90;;;;;;4961167;28;19969;-88
2022/12/06 00:19:14;;;;;;;;;;;4.60;99.90;;;;;;4960573;28;19926;-88
2022/12/06 00:21:40;;;;;;;;;;;4.60;99.90;;;;;;4955412;28;19934;-87
2022/12/06 00:24:08;;;;;;;;;;;4.60;99.90;;;;;;4992903;28;19936;-87
2022/12/06 00:26:37;;;;;;;;;;;4.60;99.90;;;;;;4960415;28;19925;-88
2022/12/06 00:29:02;;;;;;;;;;;4.60;99.90;;;;;;4945052;28;20346;-88
2022/12/06 00:31:29;;;;;;;;;;;4.60;99.90;;;;;;4940899;28;20020;-88
2022/12/06 00:33:55;;;;;;;;;;;4.60;99.90;;;;;;4967227;28;19939;-88
2022/12/06 00:36:22;;;;;;;;;;;5.30;99.90;;;;;;4976895;28;19926;-88
2022/12/06 00:38:48;;;;;;;;;;;4.50;99.90;;;;;;4965132;28;19932;-88
2022/12/06 00:41:15;;;;;;;;;;;4.60;99.90;;;;;;4958003;28;19981;-88
2022/12/06 00:43:41;;;;;;;;;;;4.60;99.90;;;;;;4983433;28;20373;-87
2022/12/06 00:46:07;;;;;;;;;;;4.60;99.90;;;;;;4960562;28;19976;-88
2022/12/06 00:48:33;;;;;;;;;;;4.60;99.90;;;;;;4972583;28;19951;-87
2022/12/06 00:51:01;;;;;;;;;;;4.70;99.90;;;;;;4960279;28;20392;-87
2022/12/06 00:53:27;;;;;;;;;;;4.60;99.90;;;;;;4976363;28;19926;-87
2022/12/06 00:55:54;;;;;;;;;;;4.60;99.90;;;;;;4960061;28;19977;-88
2022/12/06 00:58:20;;;;;;;;;;;4.60;99.90;;;;;;4974980;28;19926;-87
2022/12/06 01:00:45;;;;;;;;;;;4.60;99.90;;;;;;4975780;28;19948;-87
2022/12/06 01:03:11;;;;;;;;;;;4.60;99.90;;;;;;4958924;28;19975;-87
2022/12/06 01:05:41;;;;;;;;;;;4.60;99.90;;;;;;4973817;28;19938;-88
2022/12/06 01:08:07;;;;;;;;;;;3.80;99.90;;;;;;4959883;28;19930;-88
2022/12/06 01:10:32;;;;;;;;;;;4.60;99.90;;;;;;4979232;28;19926;-88
2022/12/06 01:12:58;;;;;;;;;;;4.60;99.90;;;;;;4977071;28;19930;-88
2022/12/06 01:15:24;;;;;;;;;;;4.60;99.90;;;;;;4960429;28;20062;-88
2022/12/06 01:17:49;;;;;;;;;;;4.60;99.90;;;;;;4960279;28;19933;-88
2022/12/06 01:20:15;;;;;;;;;;;5.50;99.90;;;;;;4968466;28;20008;-89
2022/12/06 01:22:41;;;;;;;;;;;5.60;99.90;;;;;;4960229;28;19930;-88
2022/12/06 01:25:06;;;;;;;;;;;5.20;99.90;;;;;;4975577;28;19930;-87
2022/12/06 01:27:32;;;;;;;;;;;4.50;99.90;;;;;;4975593;28;20039;-88
2022/12/06 01:30:00;;;;;;;;;;;4.50;99.90;;;;;;4960800;28;19971;-88
2022/12/06 01:32:27;;;;;;;;;;;5.40;99.90;;;;;;4975731;28;20040;-88
2022/12/06 01:34:53;;;;;;;;;;;4.50;99.90;;;;;;4960481;28;19969;-88
2022/12/06 01:37:19;;;;;;;;;;;4.50;99.90;;;;;;4976630;28;19995;-88
2022/12/06 01:39:52;;;;;;;;;;;4.50;99.90;;;;;;4979572;28;20255;-88
2022/12/06 01:42:17;;;;;;;;;;;4.50;99.90;;;;;;4996519;28;19926;-88
2022/12/06 01:44:44;;;;;;;;;;;4.90;99.90;;;;;;4983085;28;19972;-88
2022/12/06 01:47:23;;;;;;;;;;;5.40;99.90;;;;;;4982958;28;19933;-87
2022/12/06 01:50:09;;;;;;;;;;;4.50;99.90;;;;;;4972055;28;19933;-88
2022/12/06 01:52:40;;;;;;;;;;;4.80;99.90;;;;;;4996372;28;19926;-88
2022/12/06 01:55:07;;;;;;;;;;;5.20;99.90;;;;;;4998944;28;19979;-88
2022/12/06 01:57:33;;;;;;;;;;;4.50;99.90;;;;;;4999130;28;19932;-88
2022/12/06 01:59:59;;;;;;;;;;;4.60;99.90;;;;;;4995149;28;19925;-88
2022/12/06 02:02:25;;;;;;;;;;;4.60;99.90;;;;;;4989100;28;19929;-91
2022/12/06 02:04:57;;;;;;;;;;;4.60;99.90;;;;;;4978729;28;19929;-89
2022/12/06 02:07:26;;;;;;;;;;;4.50;99.90;;;;;;4991584;28;20015;-89
2022/12/06 02:09:52;;;;;;;;;;;3.70;99.90;;;;;;4978086;28;20023;-89
2022/12/06 02:12:18;;;;;;;;;;;4.50;99.90;;;;;;4981935;28;20369;-90
2022/12/06 02:14:46;;;;;;;;;;;4.60;99.90;;;;;;4982107;28;20019;-89
2022/12/06 02:17:20;;;;;;;;;;;4.40;99.90;;;;;;4978636;28;20403;-90
2022/12/06 02:20:04;;;;;;;;;;;4.40;99.90;;;;;;4972976;28;19925;-90
2022/12/06 02:22:39;;;;;;;;;;;4.50;99.90;;;;;;4982425;28;19925;-90
2022/12/06 02:25:23;;;;;;;;;;;4.40;99.90;;;;;;4987615;28;19925;-89
2022/12/06 02:28:11;;;;;;;;;;;4.40;99.90;;;;;;4998261;28;20012;-90
2022/12/06 02:30:51;;;;;;;;;;;4.30;99.90;;;;;;4985929;28;19983;-89
2022/12/06 02:33:22;;;;;;;;;;;4.30;99.90;;;;;;4987294;28;20266;-89
2022/12/06 02:36:11;;;;;;;;;;;4.30;99.90;;;;;;4973182;28;19936;-90
2022/12/06 02:38:46;;;;;;;;;;;4.30;99.90;;;;;;4997558;28;19945;-90
2022/12/06 02:41:16;;;;;;;;;;;4.20;99.90;;;;;;4988088;28;19925;-89
2022/12/06 02:43:49;;;;;;;;;;;4.20;99.90;;;;;;5029033;28;19933;-89
2022/12/06 02:46:18;;;;;;;;;;;4.30;99.90;;;;;;5001693;28;20051;-89
2022/12/06 02:48:45;;;;;;;;;;;4.20;99.90;;;;;;4983366;28;19929;-90
2022/12/06 02:51:12;;;;;;;;;;;4.20;99.90;;;;;;4984780;28;20061;-89
2022/12/06 02:53:43;;;;;;;;;;;4.10;99.90;;;;;;4997624;28;20382;-89
2022/12/06 02:56:11;;;;;;;;;;;4.20;99.90;;;;;;4987722;28;20356;-89
2022/12/06 02:58:40;;;;;;;;;;;3.40;99.90;;;;;;4998353;28;20328;-90
2022/12/06 03:01:10;;;;;;;;;;;3.20;99.90;;;;;;4984441;28;19932;-88
2022/12/06 03:03:57;;;;;;;;;;;5.00;99.90;;;;;;4986710;28;19932;-88
2022/12/06 03:06:30;;;;;;;;;;;3.90;99.90;;;;;;5016621;28;19932;-89
2022/12/06 03:08:56;;;;;;;;;;;4.90;99.90;;;;;;4997846;28;20009;-88
2022/12/06 03:11:27;;;;;;;;;;;4.20;99.90;;;;;;4986415;28;20011;-90
2022/12/06 03:14:02;;;;;;;;;;;2.90;99.90;;;;;;5014280;28;19925;-89
2022/12/06 03:16:31;;;;;;;;;;;3.70;99.90;;;;;;4985115;28;19925;-88
2022/12/06 03:19:14;;;;;;;;;;;3.60;99.90;;;;;;4984612;28;20356;-89
2022/12/06 03:21:48;;;;;;;;;;;3.60;99.90;;;;;;4990932;28;20016;-89
2022/12/06 03:24:14;;;;;;;;;;;3.60;99.90;;;;;;4996591;28;19925;-88
2022/12/06 03:26:42;;;;;;;;;;;4.30;99.90;;;;;;4981095;28;19925;-89
2022/12/06 03:29:09;;;;;;;;;;;2.80;99.90;;;;;;4996664;28;19925;-88
2022/12/06 03:31:35;;;;;;;;;;;3.50;99.90;;;;;;4979999;28;20843;-90
2022/12/06 03:34:09;;;;;;;;;;;3.50;99.90;;;;;;4972096;28;19925;-88
2022/12/06 03:36:35;;;;;;;;;;;3.60;99.90;;;;;;4977851;28;20366;-88
2022/12/06 03:39:05;;;;;;;;;;;3.40;99.90;;;;;;4989468;28;19925;-88
2022/12/06 03:41:39;;;;;;;;;;;4.50;99.90;;;;;;5019781;28;19978;-88
2022/12/06 03:44:07;;;;;;;;;;;3.40;99.90;;;;;;4997960;28;20458;-88
2022/12/06 03:46:37;;;;;;;;;;;3.50;99.90;;;;;;5014192;28;19933;-87
2022/12/06 03:49:05;;;;;;;;;;;3.50;99.90;;;;;;4987574;28;19948;-89
2022/12/06 03:51:32;;;;;;;;;;;3.60;99.90;;;;;;4995931;28;19925;-88
2022/12/06 03:54:05;;;;;;;;;;;3.60;99.90;;;;;;4985459;28;19936;-88
2022/12/06 03:56:31;;;;;;;;;;;3.50;99.90;;;;;;4980476;28;19926;-89
2022/12/06 03:58:57;;;;;;;;;;;2.40;99.90;;;;;;4983827;28;20254;-88
2022/12/06 04:01:24;;;;;;;;;;;2.80;99.90;;;;;;4991657;28;19933;-88
2022/12/06 04:03:50;;;;;;;;;;;3.40;99.90;;;;;;5006828;28;19929;-90
2022/12/06 04:06:16;;;;;;;;;;;3.40;99.90;;;;;;4999242;28;20421;-89
2022/12/06 04:08:44;;;;;;;;;;;3.80;99.90;;;;;;5027197;28;19925;-89
2022/12/06 04:11:10;;;;;;;;;;;4.20;99.90;;;;;;4984365;28;19926;-89
2022/12/06 04:13:35;;;;;;;;;;;3.30;99.90;;;;;;4975717;28;20259;-89
2022/12/06 04:16:01;;;;;;;;;;;3.10;99.90;;;;;;4960238;28;20000;-90
2022/12/06 04:18:27;;;;;;;;;;;4.20;99.90;;;;;;4976517;28;19932;-88
2022/12/06 04:23:49;;;;;;;;;;;3.20;99.90;;;;;;4985362;28;19937;-88
2022/12/06 04:26:16;;;;;;;;;;;4.20;99.90;;;;;;4960730;28;19932;-89
2022/12/06 04:39:42;;;;;;;;;;;2.90;99.90;;;;;;4975890;28;20092;-88
2022/12/06 04:44:55;;;;;;;;;;;4.30;99.90;;;;;;4960766;28;19933;-88
2022/12/06 04:47:21;;;;;;;;;;;2.60;99.90;;;;;;4968696;28;19926;-88
2022/12/06 04:49:47;;;;;;;;;;;2.60;99.90;;;;;;4935408;28;19972;-89
2022/12/06 04:52:12;;;;;;;;;;;3.70;99.90;;;;;;4959911;28;19937;-88
2022/12/06 04:54:38;;;;;;;;;;;2.70;99.90;;;;;;4960140;28;19932;-90
2022/12/06 04:57:09;;;;;;;;;;;1.50;99.90;;;;;;4951369;28;20454;-88
2022/12/06 04:59:39;;;;;;;;;;;2.30;99.90;;;;;;4979185;28;20408;-88
2022/12/06 05:02:05;;;;;;;;;;;2.80;99.90;;;;;;4974541;28;19925;-87
2022/12/06 05:04:31;;;;;;;;;;;2.40;99.90;;;;;;4959670;28;19932;-90
2022/12/06 05:06:56;;;;;;;;;;;1.20;99.90;;;;;;4974757;28;20016;-87
2022/12/06 05:09:22;;;;;;;;;;;3.20;99.90;;;;;;4960129;28;19928;-88
2022/12/06 05:11:50;;;;;;;;;;;2.00;99.90;;;;;;4970501;28;19926;-87
2022/12/06 05:14:16;;;;;;;;;;;2.00;99.90;;;;;;4999767;28;19929;-88
2022/12/06 05:16:41;;;;;;;;;;;3.20;99.90;;;;;;4993974;28;19932;-88
2022/12/06 05:19:08;;;;;;;;;;;3.20;99.90;;;;;;5002282;28;19925;-87
2022/12/06 05:21:34;;;;;;;;;;;3.30;99.90;;;;;;4999225;28;19937;-87
2022/12/06 05:23:59;;;;;;;;;;;1.70;99.90;;;;;;4983282;28;19926;-87
2022/12/06 05:26:28;;;;;;;;;;;2.20;99.90;;;;;;4975617;28;19929;-87
2022/12/06 05:28:54;;;;;;;;;;;3.30;99.90;;;;;;5019326;28;19932;-88
2022/12/06 05:31:20;;;;;;;;;;;1.60;99.90;;;;;;5002558;28;19925;-88
2022/12/06 05:33:45;;;;;;;;;;;1.60;99.90;;;;;;5002224;28;20193;-88
2022/12/06 05:36:14;;;;;;;;;;;1.80;99.90;;;;;;5002812;28;20328;-88
2022/12/06 05:38:40;;;;;;;;;;;1.40;99.90;;;;;;5018572;28;19925;-88
2022/12/06 05:41:08;;;;;;;;;;;3.20;99.90;;;;;;5002437;28;19936;-88
2022/12/06 05:43:33;;;;;;;;;;;2.70;99.90;;;;;;5002424;28;19980;-88
2022/12/06 05:45:59;;;;;;;;;;;1.50;99.90;;;;;;4986316;28;19937;-88
2022/12/06 05:48:25;;;;;;;;;;;2.90;99.90;;;;;;5002840;28;20460;-88
2022/12/06 05:50:52;;;;;;;;;;;1.50;99.90;;;;;;4987911;28;19925;-87
2022/12/06 05:53:17;;;;;;;;;;;3.40;99.90;;;;;;4979572;28;19929;-88
2022/12/06 05:55:43;;;;;;;;;;;1.60;99.90;;;;;;4975554;28;19940;-88
2022/12/06 05:58:09;;;;;;;;;;;1.90;99.90;;;;;;4983358;28;19932;-88
2022/12/06 06:00:38;;;;;;;;;;;2.90;99.90;;;;;;4998951;28;19925;-88
2022/12/06 06:03:03;;;;;;;;;;;1.80;99.90;;;;;;4982678;28;19925;-88
2022/12/06 06:05:29;;;;;;;;;;;0.40;99.90;;;;;;4981586;28;20285;-87
2022/12/06 06:07:55;;;;;;;;;;;2.50;99.90;;;;;;4982658;28;20276;-88
2022/12/06 06:10:23;;;;;;;;;;;2.90;99.90;;;;;;4982459;28;20012;-87
2022/12/06 06:12:49;;;;;;;;;;;1.50;99.90;;;;;;4982354;28;19929;-88
2022/12/06 06:15:17;;;;;;;;;;;1.40;99.90;;;;;;4982424;28;19932;-87
2022/12/06 06:17:43;;;;;;;;;;;2.90;99.90;;;;;;4982580;28;19925;-88
2022/12/06 06:20:12;;;;;;;;;;;2.70;99.90;;;;;;4966308;28;19933;-88
2022/12/06 06:22:39;;;;;;;;;;;1.30;99.90;;;;;;4980232;28;20381;-88
2022/12/06 06:25:05;;;;;;;;;;;0.80;99.90;;;;;;4982074;28;19926;-88
2022/12/06 06:27:36;;;;;;;;;;;1.40;99.90;;;;;;4984497;28;20289;-87
2022/12/06 06:30:06;;;;;;;;;;;1.30;99.90;;;;;;4970670;28;19926;-88
2022/12/06 06:32:31;;;;;;;;;;;1.30;99.90;;;;;;4986556;28;19948;-88
2022/12/06 06:34:57;;;;;;;;;;;1.40;99.90;;;;;;4974906;28;19925;-87
2022/12/06 06:37:22;;;;;;;;;;;1.40;99.90;;;;;;4975310;28;19926;-88
2022/12/06 06:39:48;;;;;;;;;;;2.90;99.90;;;;;;4981781;28;19929;-88
2022/12/06 06:42:16;;;;;;;;;;;1.50;99.90;;;;;;4998308;28;19925;-89
2022/12/06 06:44:41;;;;;;;;;;;2.90;99.90;;;;;;4998258;28;19925;-87
2022/12/06 06:47:07;;;;;;;;;;;3.50;99.90;;;;;;4981827;28;19925;-89
2022/12/06 06:49:35;;;;;;;;;;;3.00;99.90;;;;;;4967252;28;20075;-89
2022/12/06 06:52:01;;;;;;;;;;;2.80;99.90;;;;;;4966490;28;20397;-88
2022/12/06 06:54:27;;;;;;;;;;;1.70;99.90;;;;;;4962131;28;19926;-88
2022/12/06 06:56:53;;;;;;;;;;;2.50;99.90;;;;;;4962490;28;19926;-88
2022/12/06 06:59:19;;;;;;;;;;;1.40;99.90;;;;;;4962557;28;19963;-89
2022/12/06 07:01:45;;;;;;;;;;;2.90;99.90;;;;;;4947186;28;19926;-91
2022/12/06 07:04:13;;;;;;;;;;;2.80;99.90;;;;;;4982634;28;20329;-89
2022/12/06 07:06:39;;;;;;;;;;;0.50;99.90;;;;;;4982700;28;19937;-89
2022/12/06 07:09:04;;;;;;;;;;;0.30;99.90;;;;;;4978879;28;19926;-90
2022/12/06 07:11:30;;;;;;;;;;;3.40;99.90;;;;;;4969667;28;19932;-90
2022/12/06 07:13:56;;;;;;;;;;;1.30;99.90;;;;;;4986540;28;19929;-89
2022/12/06 07:16:21;;;;;;;;;;;1.20;99.90;;;;;;4984057;28;19979;-90
2022/12/06 07:18:47;;;;;;;;;;;1.30;99.90;;;;;;4997661;28;19926;-89
2022/12/06 07:21:14;;;;;;;;;;;2.00;99.90;;;;;;4981353;28;19953;-91
2022/12/06 07:23:40;;;;;;;;;;;2.70;99.90;;;;;;4980822;28;19932;-89
2022/12/06 07:26:08;;;;;;;;;;;2.70;99.90;;;;;;4985128;28;19929;-89
2022/12/06 07:28:35;;;;;;;;;;;3.00;99.90;;;;;;4986196;28;19926;-90
2022/12/06 07:31:08;;;;;;;;;;;1.80;99.90;;;;;;5001391;28;19929;-89
2022/12/06 07:33:34;;;;;;;;;;;1.00;99.90;;;;;;4985120;28;19932;-89
2022/12/06 07:36:00;;;;;;;;;;;0.80;99.90;;;;;;4999410;28;19926;-89
2022/12/06 07:38:25;;;;;;;;;;;2.10;99.90;;;;;;4980872;28;19929;-90
2022/12/06 07:40:51;;;;;;;;;;;2.40;99.90;;;;;;5013478;28;20309;-90
2022/12/06 07:46:03;;;;;;;;;;;0.90;99.90;;;;;;5005624;28;20282;-89
2022/12/06 07:48:29;;;;;;;;;;;0.90;99.90;;;;;;5004070;28;19932;-90
2022/12/06 07:50:55;;;;;;;;;;;2.50;99.90;;;;;;5003550;28;19926;-90
2022/12/06 07:53:20;;;;;;;;;;;2.70;99.90;;;;;;4986394;28;20339;-89
2022/12/06 07:55:48;;;;;;;;;;;2.90;99.90;;;;;;5013979;28;19951;-89
2022/12/06 07:58:14;;;;;;;;;;;1.00;99.90;;;;;;4980796;28;19926;-89
2022/12/06 08:00:40;;;;;;;;;;;0.80;99.90;;;;;;4997031;28;19948;-90
2022/12/06 08:03:06;;;;;;;;;;;0.80;99.90;;;;;;4980726;28;19929;-90
2022/12/06 08:05:32;;;;;;;;;;;2.70;99.90;;;;;;4980804;28;19929;-90
2022/12/06 08:07:57;;;;;;;;;;;0.80;99.90;;;;;;4980636;28;19932;-89
2022/12/06 08:10:23;;;;;;;;;;;0.80;99.90;;;;;;4996146;28;19925;-89
2022/12/06 08:12:49;;;;;;;;;;;2.10;99.90;;;;;;4977246;28;20341;-90
2022/12/06 08:15:17;;;;;;;;;;;0.70;99.90;;;;;;4993369;28;19969;-89
2022/12/06 08:17:42;;;;;;;;;;;0.90;99.90;;;;;;4993760;28;20294;-90
2022/12/06 08:20:08;;;;;;;;;;;1.10;99.90;;;;;;4995745;28;20022;-90
2022/12/06 08:22:36;;;;;;;;;;;0.80;99.90;;;;;;4980397;28;19925;-90
2022/12/06 08:25:02;;;;;;;;;;;0.90;99.90;;;;;;4983273;28;19981;-89
2022/12/06 08:27:28;;;;;;;;;;;1.10;99.90;;;;;;4973600;28;19975;-89
2022/12/06 08:29:53;;;;;;;;;;;1.00;99.90;;;;;;4980583;28;20350;-89
2022/12/06 08:32:19;;;;;;;;;;;2.30;99.90;;;;;;4996738;28;19976;-90
2022/12/06 08:34:44;;;;;;;;;;;1.30;99.90;;;;;;4996296;28;19926;-89
2022/12/06 08:37:10;;;;;;;;;;;1.70;99.90;;;;;;4979496;28;19979;-90
2022/12/06 08:39:36;;;;;;;;;;;2.60;99.90;;;;;;4996110;28;19929;-89
2022/12/06 08:42:05;;;;;;;;;;;1.50;99.90;;;;;;4978668;28;20411;-90
2022/12/06 08:44:31;;;;;;;;;;;1.60;99.90;;;;;;4996616;28;19933;-90
2022/12/06 08:46:58;;;;;;;;;;;3.00;99.90;;;;;;4980098;28;19929;-90
2022/12/06 08:49:24;;;;;;;;;;;1.70;99.90;;;;;;4980524;28;20019;-90
2022/12/06 08:51:51;;;;;;;;;;;3.30;99.90;;;;;;4995968;28;19968;-88
2022/12/06 08:54:17;;;;;;;;;;;3.40;99.90;;;;;;4995995;28;20373;-89
2022/12/06 08:56:43;;;;;;;;;;;3.10;99.90;;;;;;4971046;28;19930;-90
2022/12/06 08:59:09;;;;;;;;;;;2.80;99.90;;;;;;4976727;28;19941;-89
2022/12/06 09:01:35;;;;;;;;;;;2.40;99.90;;;;;;4979561;28;20320;-90
2022/12/06 09:04:02;;;;;;;;;;;3.20;99.90;;;;;;4976589;28;19934;-90
2022/12/06 09:06:30;;;;;;;;;;;3.20;99.90;;;;;;4983945;28;19925;-90
2022/12/06 09:08:57;;;;;;;;;;;2.50;99.90;;;;;;4980176;28;20087;-90
2022/12/06 09:11:23;;;;;;;;;;;2.10;99.90;;;;;;4979663;28;19932;-90
2022/12/06 09:13:49;;;;;;;;;;;3.90;99.90;;;;;;4996404;28;19929;-89
2022/12/06 09:16:16;;;;;;;;;;;2.30;99.90;;;;;;4993681;28;19926;-90
2022/12/06 09:18:46;;;;;;;;;;;2.30;99.90;;;;;;4976914;28;19925;-90
2022/12/06 09:21:13;;;;;;;;;;;2.90;99.90;;;;;;4961258;28;19933;-90
2022/12/06 09:23:38;;;;;;;;;;;2.40;99.90;;;;;;4960239;28;20376;-91
2022/12/06 09:26:05;;;;;;;;;;;3.50;99.90;;;;;;4961376;28;20016;-90
2022/12/06 09:28:32;;;;;;;;;;;3.90;99.90;;;;;;4960701;28;19930;-89
2022/12/06 09:30:58;;;;;;;;;;;2.60;99.90;;;;;;4960914;28;20337;-91
2022/12/06 09:33:24;;;;;;;;;;;3.90;99.90;;;;;;4976802;28;19929;-90
2022/12/06 09:35:50;;;;;;;;;;;2.30;99.90;;;;;;4979925;28;19926;-90
2022/12/06 09:38:19;;;;;;;;;;;2.90;99.90;;;;;;4979639;28;19968;-90
2022/12/06 09:40:47;;;;;;;;;;;3.70;99.90;;;;;;4980149;28;19925;-90
2022/12/06 09:43:13;;;;;;;;;;;2.40;99.90;;;;;;4979824;28;20409;-90
2022/12/06 09:45:48;;;;;;;;;;;2.50;99.90;;;;;;4979626;28;20029;-90
2022/12/06 09:48:22;;;;;;;;;;;2.50;99.90;;;;;;4979367;28;20266;-90
2022/12/06 09:51:15;;;;;;;;;;;2.60;99.90;;;;;;4979663;28;19975;-90
2022/12/06 09:53:54;;;;;;;;;;;2.60;99.90;;;;;;4979339;28;19930;-90
2022/12/06 09:56:25;;;;;;;;;;;2.70;99.90;;;;;;4979898;28;20321;-90
2022/12/06 09:59:06;;;;;;;;;;;2.80;99.90;;;;;;4981055;28;19936;-90
2022/12/06 10:01:38;;;;;;;;;;;2.90;99.90;;;;;;4982816;28;19927;-89
2022/12/06 10:04:26;;;;;;;;;;;3.00;99.90;;;;;;4962901;28;19926;-90
2022/12/06 10:07:04;;;;;;;;;;;3.00;99.90;;;;;;4995988;28;19925;-90
2022/12/06 10:09:48;;;;;;;;;;;3.00;99.90;;;;;;4963610;28;20269;-90
2022/12/06 10:12:22;;;;;;;;;;;3.10;99.90;;;;;;4979552;28;19926;-90
2022/12/06 10:15:05;;;;;;;;;;;3.10;99.90;;;;;;4979617;28;20021;-91
2022/12/06 10:17:36;;;;;;;;;;;3.30;99.90;;;;;;4984508;28;20270;-90
2022/12/06 10:20:06;;;;;;;;;;;3.30;99.90;;;;;;4982537;28;19925;-91
2022/12/06 10:22:41;;;;;;;;;;;3.40;99.90;;;;;;4998799;28;20362;-90
2022/12/06 10:25:12;;;;;;;;;;;3.40;99.90;;;;;;4982600;28;19936;-90
2022/12/06 10:27:42;;;;;;;;;;;3.50;99.90;;;;;;4999199;28;20288;-90
2022/12/06 10:30:09;;;;;;;;;;;5.10;99.90;;;;;;4998974;28;19925;-90
2022/12/06 10:33:04;;;;;;;;;;;3.70;99.90;;;;;;5010931;28;19980;-92
2022/12/06 10:35:45;;;;;;;;;;;3.70;99.90;;;;;;4961115;28;20032;-90
2022/12/06 10:38:18;;;;;;;;;;;3.80;99.90;;;;;;4978942;28;19965;-90
2022/12/06 10:41:02;;;;;;;;;;;4.70;99.90;;;;;;4963058;28;19925;-90
2022/12/06 10:43:35;;;;;;;;;;;3.40;99.90;;;;;;4963268;28;19926;-90
2022/12/06 10:49:16;;;;;;;;;;;4.20;99.90;;;;;;4979297;28;19929;-90
2022/12/06 10:51:44;;;;;;;;;;;4.20;99.90;;;;;;4979675;28;19925;-91
2022/12/06 10:54:18;;;;;;;;;;;4.30;99.90;;;;;;4982070;28;19936;-90
2022/12/06 10:56:50;;;;;;;;;;;4.40;99.90;;;;;;4982353;28;20021;-90
2022/12/06 10:59:35;;;;;;;;;;;4.60;99.90;;;;;;4983002;28;19936;-91
2022/12/06 11:02:13;;;;;;;;;;;4.70;99.90;;;;;;4992773;28;20025;-91
2022/12/06 11:04:39;;;;;;;;;;;4.80;99.90;;;;;;4998549;28;19936;-90
2022/12/06 11:07:17;;;;;;;;;;;5.70;99.90;;;;;;4991162;28;20373;-91
2022/12/06 11:09:44;;;;;;;;;;;5.20;99.90;;;;;;5003395;28;19926;-90
2022/12/06 11:12:35;;;;;;;;;;;5.20;99.90;;;;;;4993795;28;20423;-90
2022/12/06 11:15:17;;;;;;;;;;;4.20;99.90;;;;;;5013366;28;19925;-92
2022/12/06 11:17:47;;;;;;;;;;;5.40;99.90;;;;;;4983594;28;19936;-91
2022/12/06 11:20:31;;;;;;;;;;;5.30;99.90;;;;;;4986891;28;19926;-90
2022/12/06 11:23:07;;;;;;;;;;;5.20;99.90;;;;;;4962492;28;19945;-91
2022/12/06 11:25:39;;;;;;;;;;;5.10;99.90;;;;;;4962381;28;19926;-91
2022/12/06 11:28:08;;;;;;;;;;;5.10;99.90;;;;;;4962378;28;19933;-89
2022/12/06 11:30:33;;;;;;;;;;;5.20;99.90;;;;;;4962145;28;19933;-90
2022/12/06 11:33:00;;;;;;;;;;;6.00;99.90;;;;;;4962515;28;19925;-90
2022/12/06 11:35:27;;;;;;;;;;;5.30;99.90;;;;;;4989792;28;20012;-90
2022/12/06 11:37:55;;;;;;;;;;;5.40;99.90;;;;;;5000198;28;19947;-89
2022/12/06 11:40:35;;;;;;;;;;;5.40;99.90;;;;;;4984589;28;19925;-90
2022/12/06 11:43:04;;;;;;;;;;;5.40;99.90;;;;;;4985457;28;20427;-90
2022/12/06 11:45:46;;;;;;;;;;;5.50;99.90;;;;;;4994668;28;20191;-90
2022/12/06 11:48:14;;;;;;;;;;;5.50;99.90;;;;;;5001332;28;19925;-89
2022/12/06 11:50:41;;;;;;;;;;;5.50;99.90;;;;;;5009323;28;19925;-90
2022/12/06 11:53:18;;;;;;;;;;;5.40;99.90;;;;;;5028741;28;19939;-90
2022/12/06 11:55:45;;;;;;;;;;;5.40;99.90;;;;;;5010002;28;19976;-88
2022/12/06 11:58:17;;;;;;;;;;;6.00;99.90;;;;;;5009309;28;19948;-91
2022/12/06 12:01:00;;;;;;;;;;;5.40;99.90;;;;;;5003374;28;20002;-89
2022/12/06 12:03:43;;;;;;;;;;;5.40;99.90;;;;;;5000120;28;20015;-90
2022/12/06 12:06:16;;;;;;;;;;;4.40;99.90;;;;;;5000858;28;20021;-90
2022/12/06 12:09:03;;;;;;;;;;;5.20;99.90;;;;;;5000243;28;19925;-89
2022/12/06 12:11:31;;;;;;;;;;;5.40;99.90;;;;;;4996950;28;19926;-89
2022/12/06 12:13:58;;;;;;;;;;;4.30;99.90;;;;;;4981049;28;19929;-89
2022/12/06 12:16:41;;;;;;;;;;;5.20;99.90;;;;;;4980921;28;20237;-89
2022/12/06 12:19:25;;;;;;;;;;;5.30;99.90;;;;;;4980511;28;19925;-89
2022/12/06 12:21:56;;;;;;;;;;;5.60;99.90;;;;;;4968283;28;20341;-90
2022/12/06 12:24:40;;;;;;;;;;;5.50;99.90;;;;;;4988344;28;19925;-90
2022/12/06 12:27:25;;;;;;;;;;;5.60;99.90;;;;;;4981233;28;20397;-91
2022/12/06 12:30:11;;;;;;;;;;;6.20;99.90;;;;;;5005917;28;19926;-90
2022/12/06 12:32:37;;;;;;;;;;;5.70;99.90;;;;;;5012679;28;20385;-91
2022/12/06 12:35:21;;;;;;;;;;;5.70;99.90;;;;;;4979462;28;19925;-90
2022/12/06 12:37:50;;;;;;;;;;;5.80;99.90;;;;;;4980528;28;19983;-89
2022/12/06 12:40:28;;;;;;;;;;;5.80;99.90;;;;;;4972106;28;19925;-91
2022/12/06 12:43:03;;;;;;;;;;;5.90;99.90;;;;;;4964573;28;19934;-91
2022/12/06 12:45:29;;;;;;;;;;;5.80;99.90;;;;;;4980208;28;19949;-92
2022/12/06 12:48:01;;;;;;;;;;;6.80;99.90;;;;;;4980887;28;19925;-91
2022/12/06 12:50:28;;;;;;;;;;;5.80;99.90;;;;;;4980411;28;19931;-91
2022/12/06 12:52:54;;;;;;;;;;;5.70;99.90;;;;;;4979961;28;19925;-90
2022/12/06 12:55:22;;;;;;;;;;;4.80;99.90;;;;;;4996379;28;20012;-89
2022/12/06 12:57:49;;;;;;;;;;;5.70;99.90;;;;;;5013091;28;19977;-90
2022/12/06 13:00:15;;;;;;;;;;;6.20;99.90;;;;;;4979467;28;19983;-90
2022/12/06 13:02:45;;;;;;;;;;;5.80;99.90;;;;;;5009554;28;19926;-89
2022/12/06 13:05:16;;;;;;;;;;;5.80;99.90;;;;;;5002734;28;19980;-91
2022/12/06 13:07:42;;;;;;;;;;;5.80;99.90;;;;;;4996599;28;19929;-90
2022/12/06 13:10:29;;;;;;;;;;;5.80;99.90;;;;;;4996015;28;20083;-90
2022/12/06 13:13:09;;;;;;;;;;;5.80;99.90;;;;;;4980323;28;19925;-90
2022/12/06 13:15:49;;;;;;;;;;;5.80;99.90;;;;;;4980194;28;19933;-90
2022/12/06 13:18:19;;;;;;;;;;;5.90;99.90;;;;;;4996272;28;19976;-90
2022/12/06 13:20:48;;;;;;;;;;;6.00;99.90;;;;;;4980269;28;19925;-92
2022/12/06 13:23:17;;;;;;;;;;;6.50;99.90;;;;;;4992207;28;19925;-91
2022/12/06 13:25:55;;;;;;;;;;;6.70;99.90;;;;;;4980024;28;20263;-91
2022/12/06 13:28:30;;;;;;;;;;;5.90;99.90;;;;;;4980196;28;19979;-90
2022/12/06 13:30:59;;;;;;;;;;;5.90;99.90;;;;;;4980262;28;19930;-90
2022/12/06 13:33:25;;;;;;;;;;;5.80;99.90;;;;;;4980542;28;20388;-90
2022/12/06 13:36:04;;;;;;;;;;;5.80;99.90;;;;;;5000071;28;19929;-90
2022/12/06 13:38:32;;;;;;;;;;;5.70;99.90;;;;;;4981721;28;20029;-90
2022/12/06 13:41:00;;;;;;;;;;;5.70;99.90;;;;;;5000117;28;19925;-91
2022/12/06 13:43:26;;;;;;;;;;;6.80;99.90;;;;;;4983811;28;20389;-90
2022/12/06 13:46:07;;;;;;;;;;;5.70;99.90;;;;;;4999723;28;20029;-91
2022/12/06 13:48:33;;;;;;;;;;;5.60;99.90;;;;;;4983424;28;19925;-90
2022/12/06 13:51:02;;;;;;;;;;;5.70;99.90;;;;;;4992353;28;20417;-90
2022/12/06 13:53:32;;;;;;;;;;;5.70;99.90;;;;;;4967120;28;19929;-90
2022/12/06 13:56:02;;;;;;;;;;;5.70;99.90;;;;;;4981983;28;19925;-91
2022/12/06 13:58:28;;;;;;;;;;;5.70;99.90;;;;;;4982935;28;19925;-91
2022/12/06 14:00:54;;;;;;;;;;;6.70;99.90;;;;;;4983776;28;19937;-91
2022/12/06 14:03:20;;;;;;;;;;;5.70;99.90;;;;;;4983056;28;20016;-90
2022/12/06 14:05:54;;;;;;;;;;;6.50;99.90;;;;;;4983126;28;20017;-91
2022/12/06 14:08:20;;;;;;;;;;;5.60;99.90;;;;;;4983099;28;20028;-91
2022/12/06 14:10:46;;;;;;;;;;;5.70;99.90;;;;;;4997410;28;19931;-90
2022/12/06 14:13:20;;;;;;;;;;;5.60;99.90;;;;;;5015201;28;19975;-90
2022/12/06 14:15:55;;;;;;;;;;;5.60;99.90;;;;;;4982851;28;19976;-90
2022/12/06 14:18:23;;;;;;;;;;;5.80;99.90;;;;;;4983154;28;19983;-90
2022/12/06 14:20:50;;;;;;;;;;;5.60;99.90;;;;;;4981096;28;19925;-91
2022/12/06 14:23:22;;;;;;;;;;;5.60;99.90;;;;;;4980137;28;19929;-92
2022/12/06 14:25:47;;;;;;;;;;;5.70;99.90;;;;;;4979235;28;20044;-91
2022/12/06 14:28:13;;;;;;;;;;;5.60;99.90;;;;;;4979320;28;19980;-90
2022/12/06 14:30:39;;;;;;;;;;;5.50;99.90;;;;;;4983102;28;20318;-90
2022/12/06 14:33:25;;;;;;;;;;;6.00;99.90;;;;;;4998726;28;20012;-91
2022/12/06 14:35:51;;;;;;;;;;;5.70;99.90;;;;;;4981742;28;19930;-91
2022/12/06 14:38:20;;;;;;;;;;;5.50;99.90;;;;;;4982495;28;19925;-90
2022/12/06 14:43:31;;;;;;;;;;;5.70;99.90;;;;;;4998871;28;20020;-91
2022/12/06 14:45:59;;;;;;;;;;;5.50;99.90;;;;;;4982182;28;19925;-90
2022/12/06 14:48:25;;;;;;;;;;;5.50;99.90;;;;;;4982038;28;20428;-90
2022/12/06 14:50:51;;;;;;;;;;;5.40;99.90;;;;;;4981553;28;20412;-91
2022/12/06 14:53:27;;;;;;;;;;;5.40;99.90;;;;;;4968016;28;19951;-91
2022/12/06 14:55:53;;;;;;;;;;;5.40;99.90;;;;;;4996065;28;19994;-91
2022/12/06 14:58:21;;;;;;;;;;;5.40;99.90;;;;;;4984782;28;19976;-90
2022/12/06 15:00:55;;;;;;;;;;;5.50;99.90;;;;;;4985704;28;19926;-92
2022/12/06 15:03:23;;;;;;;;;;;5.40;99.90;;;;;;4979262;28;19926;-89
2022/12/06 15:05:56;;;;;;;;;;;5.30;99.90;;;;;;4995903;28;19934;-89
2022/12/06 15:08:27;;;;;;;;;;;5.30;99.90;;;;;;4975777;28;20363;-89
2022/12/06 15:11:03;;;;;;;;;;;5.30;99.90;;;;;;4988568;28;19930;-89